Войти
Мобильная версия

что за адок случился у Уральцев?

 ↓ ВНИЗ

toronto58
Старожил форума
09.10.2018 16:01

Завтра лететь Уральскими авиалиниями...глянул на флайтрадар, а там половину вчерашних и сегодняшних рейсов отменили, остальные вылетели с большими задержками...что в Жуковском, что в Домодедово

никто часом не подскажет, что случилось и чего ждать завтра от них?

Всем добра!
duremar
Старожил форума
09.10.2018 16:07
Ураганный ветер в Екатеринбурге в последние сутки. Много уходов на запасные
toronto58
Старожил форума
09.10.2018 17:04
duremar
Ураганный ветер в Екатеринбурге в последние сутки. Много уходов на запасные
странно...аэрофлот и победа прилетали и улетали вовремя за последние двое суток
ANDR-тот самый
Старожил форума
09.10.2018 17:47
toronto58
странно...аэрофлот и победа прилетали и улетали вовремя за последние двое суток
Так это ж Афлот и Беда, им ветер побоку (боковой), они только по обледенению ВПП уходят и по снегопаду.
toronto58
Старожил форума
09.10.2018 17:55
ANDR-тот самый
Так это ж Афлот и Беда, им ветер побоку (боковой), они только по обледенению ВПП уходят и по снегопаду.
что, у них айрбасы (аэрофлот) другие?
Petruha_89
Старожил форума
10.10.2018 00:00
duremar
Ураганный ветер в Екатеринбурге в последние сутки. Много уходов на запасные
Самый сильный ветер за предыдущие двое суток:
METAR USSS 090000Z 28016G22MPS 9999 SCT033 06/M00 Q1010 WS
R26L R26L/010060 R26R/290045 NOSIG RMK QFE737/0982=

Ivanjustpilot
Новичок-курсант
10.10.2018 00:28
Petruha_89
Самый сильный ветер за предыдущие двое суток:
METAR USSS 090000Z 28016G22MPS 9999 SCT033 06/M00 Q1010 WS
R26L R26L/010060 R26R/290045 NOSIG RMK QFE737/0982=

И тот по полосе , почти
Пашок
Старожил форума
10.10.2018 00:40
В Жуковском с утреца туман был очень знатный, завернули всех кого можно. За Домодедово не скажу



 

 

 

 

Реклама от YouDo
← На главную страницу

Реклама на сайте Обратная связь/Связаться с администрацией
Рейтинг@Mail.ru